Latest Weather Observations for Roebourne Airport

IDW60801

Issued at 2:33 pm WST Saturday 10 December 2016 (issued every 30 minutes, with the page automatically refreshed every 10 minutes)

About weather observations | Map of weather stations | Latest weather observations for WA | Other Formats
Station Details ID: 004090 Name: ROEBOURNE AERO Lat: -20.76 Lon: 117.16 Height: 10.7 m
Data from the previous 72 hours. | See also: Recent months at Roebourne Airport
Date/Time
WST
Temp
°C
App
Temp
°C
Dew
Point
°C
Rel
Hum
%
Delta-T
°C
Wind Press
QNH
hPa
Press
MSL
hPa
Rain since
9am
mm
Dir  Spd
km/h
Gust
km/h
Spd
kts
Gust
kts
10/02:30pm 38.7 35.3 19.0 31 13.1 N 35 44 19 24 1007.0 1007.0 0.0
10/02:00pm 39.5 35.9 17.6 27 14.4 NNE 33 41 18 22 1007.2 1007.2 0.0
10/01:30pm 40.9 36.8 15.0 22 16.4 NNE 30 39 16 21 1007.4 1007.4 0.0
10/01:00pm 40.0 36.1 15.6 24 15.6 NNE 30 37 16 20 1007.6 1007.6 0.0
10/12:30pm 39.8 35.9 15.4 23 15.5 NNE 30 41 16 22 1007.9 1007.9 0.0
10/12:00pm 40.2 36.0 15.7 23 15.7 NNE 32 39 17 21 1008.2 1008.2 0.0
10/11:30am 40.6 36.0 14.7 21 16.4 NE 32 39 17 21 1008.5 1008.5 0.0
10/11:00am 40.3 35.9 15.2 23 16.0 NE 32 41 17 22 1008.9 1008.9 0.0
10/10:30am 39.4 36.0 15.7 24 15.1 NE 28 35 15 19 1009.2 1009.2 0.0
10/10:05am 39.7 36.6 16.6 26 14.9 ENE 28 46 15 25 1009.4 1009.4 0.0
10/10:00am 39.4 35.4 16.3 25 14.9 NE 32 43 17 23 1009.5 1009.5 0.0
10/09:30am 39.8 36.3 15.4 23 15.5 E 28 46 15 25 1009.6 1009.6 0.0
10/09:16am 39.4 35.7 15.1 24 15.4 E 28 46 15 25 1009.7 1009.7 0.0
10/09:00am 38.6 35.1 14.4 24 15.1 E 26 35 14 19 1009.8 1009.8 0.0
10/08:30am 37.3 35.4 15.7 27 13.7 ESE 20 32 11 17 1009.8 1009.8 0.0
10/08:00am 36.5 35.7 17.1 31 12.5 SE 17 24 9 13 1009.8 1009.8 0.0
10/07:30am 33.9 33.1 17.2 37 10.7 S 17 20 9 11 1009.7 1009.7 0.0
10/07:00am 33.0 33.2 17.6 40 9.9 S 13 17 7 9 1009.7 1009.7 0.0
10/06:30am 31.3 30.7 17.6 44 8.7 S 17 20 9 11 1009.6 1009.6 0.0
10/06:00am 30.0 30.0 18.1 49 7.6 SSW 15 19 8 10 1009.2 1009.2 0.0
10/05:30am 27.6 28.0 17.2 53 6.5 S 11 15 6 8 1009.1 1009.1 0.0
10/05:00am 29.0 30.5 17.5 49 7.3 SSW 6 9 3 5 1008.9 1008.9 0.0
10/04:30am 29.0 29.9 17.5 49 7.3 SSW 9 11 5 6 1008.6 1008.6 0.0
10/04:00am 29.2 31.9 17.7 50 7.3 CALM 0 0 0 0 1008.6 1008.6 0.0
10/03:30am 29.3 30.7 17.8 50 7.3 SSW 7 9 4 5 1008.4 1008.4 0.0
10/03:00am 29.6 31.1 18.1 50 7.4 SSW 7 9 4 5 1008.3 1008.3 0.0
10/02:30am 29.5 30.7 18.3 51 7.2 SSW 9 9 5 5 1008.2 1008.2 0.0
10/02:00am 30.3 31.6 18.4 49 7.7 SSE 9 11 5 6 1008.4 1008.4 0.0
10/01:30am 30.7 31.8 18.8 49 7.7 SE 11 15 6 8 1008.3 1008.3 0.0
10/01:00am 30.8 32.6 18.8 48 7.8 SE 7 9 4 5 1008.8 1008.8 0.0
10/12:30am 31.1 32.7 19.1 48 7.8 SE 9 13 5 7 1009.1 1009.1 0.0
10/12:00am 31.0 32.7 19.4 50 7.6 SSE 9 13 5 7 1009.6 1009.6 0.0
 
Date/Time
WST
Temp
°C
App
Temp
°C
Dew
Point
°C
Rel
Hum
%
Delta-T
°C
Wind Press
QNH
hPa
Press
MSL
hPa
Rain since
9am
mm
Dir  Spd
km/h
Gust
km/h
Spd
kts
Gust
kts
09/11:30pm 31.2 31.6 19.9 51 7.4 SE 17 22 9 12 1010.0 1010.0 0.0
09/11:00pm 31.1 31.1 19.8 51 7.4 SE 19 26 10 14 1010.4 1010.4 0.0
09/10:30pm 30.9 30.6 19.6 51 7.4 ESE 20 30 11 16 1010.5 1010.5 0.0
09/10:00pm 31.3 29.2 19.0 48 8.0 ESE 28 39 15 21 1010.4 1010.4 0.0
09/09:30pm 31.9 31.2 19.5 47 8.1 E 22 30 12 16 1010.2 1010.2 0.0
09/09:00pm 32.2 31.1 19.5 47 8.4 E 24 32 13 17 1009.9 1009.9 0.0
09/08:30pm 32.6 30.8 19.5 46 8.6 E 28 33 15 18 1009.7 1009.7 0.0
09/08:00pm 33.2 29.8 18.2 41 9.7 E 33 46 18 25 1009.5 1009.5 0.0
09/07:30pm 34.7 31.6 17.4 35 11.1 E 30 39 16 21 1009.1 1009.1 0.0
09/07:00pm 35.9 33.8 17.1 32 12.1 ESE 24 30 13 16 1008.6 1008.6 0.0
09/06:30pm 36.6 35.5 17.7 32 12.3 WSW 20 39 11 21 1007.5 1007.5 0.0
09/06:00pm 36.9 36.5 18.9 34 11.9 WNW 19 24 10 13 1007.0 1007.0 0.0
09/05:30pm 36.4 35.5 19.8 37 11.1 W 24 30 13 16 1006.7 1006.7 0.0
09/05:00pm 37.8 37.3 17.7 30 13.1 W 17 35 9 19 1006.2 1006.2 0.0
09/04:30pm 38.4 37.5 17.7 29 13.5 WNW 19 24 10 13 1006.1 1006.1 0.0
09/04:00pm 38.5 38.7 16.7 27 14.1 SW 11 17 6 9 1006.0 1006.0 0.0
09/03:30pm 38.2 39.1 17.6 30 13.4 NNW 9 22 5 12 1006.1 1006.1 0.0
09/03:00pm 39.0 39.5 16.6 27 14.5 SSW 9 17 5 9 1006.2 1006.2 0.0
09/02:30pm 39.4 38.5 16.9 26 14.6 NNE 17 24 9 13 1006.5 1006.5 0.0
09/02:00pm 40.4 40.5 18.3 27 14.7 NE 15 24 8 13 1006.8 1006.8 0.0
09/01:30pm 39.3 39.3 18.0 29 14.0 NE 15 24 8 13 1007.2 1007.2 0.0
09/01:00pm 38.5 38.0 17.8 29 13.6 NNE 17 28 9 15 1007.5 1007.5 0.0
09/12:30pm 37.9 38.4 18.3 31 12.9 NE 13 24 7 13 1007.8 1007.8 0.0
09/12:00pm 37.7 38.9 19.1 33 12.4 NE 11 20 6 11 1008.1 1008.1 0.0
09/11:30am 37.8 38.0 17.7 30 13.1 ESE 13 24 7 13 1008.4 1008.4 0.0
09/11:00am 37.6 36.6 17.6 31 13.0 E 19 32 10 17 1008.7 1008.7 0.0
09/10:30am 37.5 37.8 18.0 31 12.8 E 13 20 7 11 1009.1 1009.1 0.0
09/10:00am 37.1 36.5 17.6 31 12.7 SE 17 24 9 13 1009.5 1009.5 0.0
09/09:30am 35.9 35.3 17.6 34 11.9 SE 17 22 9 12 1009.8 1009.8 0.0
09/09:00am 34.6 34.4 18.6 38 10.5 ESE 17 24 9 13 1009.8 1009.8 0.0
09/08:30am 33.1 33.4 18.8 42 9.3 SE 15 20 8 11 1009.8 1009.8 0.0
09/08:00am 32.3 32.8 19.2 46 8.6 SE 15 20 8 11 1009.7 1009.7 0.0
09/07:30am 31.2 32.6 19.5 49 7.7 SSE 11 15 6 8 1009.7 1009.7 0.0
09/07:00am 30.2 32.2 19.9 54 6.8 SSE 9 11 5 6 1009.4 1009.4 0.0
09/06:30am 29.4 33.3 20.3 58 6.0 CALM 0 0 0 0 1009.2 1009.2 0.0
09/06:00am 29.1 31.8 20.3 59 5.8 ESE 6 9 3 5 1008.8 1008.8 0.0
09/05:30am 28.7 31.3 20.4 60 5.5 ESE 7 9 4 5 1008.5 1008.5 0.0
09/05:00am 28.9 30.7 20.4 60 5.6 SE 11 13 6 7 1008.2 1008.2 0.0
09/04:30am 29.0 30.4 20.4 59 5.7 SE 13 15 7 8 1008.0 1008.0 0.0
09/04:00am 28.7 30.8 21.7 66 4.7 SSE 13 15 7 8 1007.9 1007.9 0.0
09/03:30am 28.5 31.2 21.3 65 4.8 SSW 9 13 5 7 1007.9 1007.9 0.0
09/03:00am 28.8 31.3 21.1 63 5.1 S 9 11 5 6 1007.9 1007.9 0.0
09/02:30am 29.0 30.7 21.0 62 5.3 S 13 15 7 8 1008.0 1008.0 0.0
09/02:00am 28.9 30.8 20.6 61 5.5 SW 11 13 6 7 1008.1 1008.1 0.0
09/01:30am 28.8 29.7 20.8 62 5.3 SSW 17 22 9 12 1008.4 1008.4 0.0
09/01:00am 29.5 29.7 20.6 58 5.9 SSW 20 24 11 13 1008.6 1008.6 0.0
09/12:30am 30.4 32.2 21.2 58 6.2 SW 13 17 7 9 1008.6 1008.6 0.0
09/12:00am 30.8 32.5 21.0 56 6.6 W 13 17 7 9 1008.8 1008.8 0.0
 
Date/Time
WST
Temp
°C
App
Temp
°C
Dew
Point
°C
Rel
Hum
%
Delta-T
°C
Wind Press
QNH
hPa
Press
MSL
hPa
Rain since
9am
mm
Dir  Spd
km/h
Gust
km/h
Spd
kts
Gust
kts
08/11:30pm 31.0 33.4 20.9 55 6.7 WSW 9 11 5 6 1009.1 1009.1 0.0
08/11:00pm 31.1 33.1 20.7 54 6.9 W 11 13 6 7 1009.5 1009.5 0.0
08/10:30pm 31.3 33.1 21.2 55 6.8 W 13 15 7 8 1009.6 1009.6 0.0
08/10:00pm 31.4 32.6 20.7 53 7.1 W 15 19 8 10 1009.6 1009.6 0.0
08/09:30pm 31.6 32.7 20.5 51 7.4 WNW 15 19 8 10 1009.3 1009.3 0.0
08/09:00pm 31.7 31.9 19.3 47 8.1 WNW 17 20 9 11 1009.1 1009.1 0.0
08/08:30pm 31.7 31.7 19.7 49 7.9 NW 19 24 10 13 1009.0 1009.0 0.0
08/08:00pm 31.6 31.5 19.6 49 7.9 NW 19 24 10 13 1008.7 1008.7 0.0
08/07:30pm 32.0 31.7 19.6 47 8.2 NNW 20 24 11 13 1008.3 1008.3 0.0
08/07:00pm 32.4 31.4 18.9 44 8.8 NNW 22 26 12 14 1008.1 1008.1 0.0
08/06:30pm 33.0 31.8 18.4 42 9.5 NNW 22 28 12 15 1007.7 1007.7 0.0
08/06:00pm 33.6 31.3 18.5 40 9.9 NNW 28 32 15 17 1007.1 1007.1 0.0
08/05:30pm 35.0 33.5 18.6 38 10.7 N 24 33 13 18 1006.7 1006.7 0.0
08/05:00pm 36.1 34.4 18.2 34 11.7 NNW 24 33 13 18 1006.4 1006.4 0.0
08/04:30pm 36.9 35.2 18.0 33 12.3 NNW 24 32 13 17 1006.4 1006.4 0.0
08/04:00pm 36.2 34.6 17.4 33 12.2 N 22 30 12 16 1006.5 1006.5 0.0
08/03:30pm 36.6 35.1 17.7 32 12.3 NNW 22 32 12 17 1006.4 1006.4 0.0
08/03:00pm 37.5 36.3 17.0 30 13.3 NNE 19 30 10 16 1006.4 1006.4 0.0
08/02:30pm 38.2 37.3 18.1 30 13.2 N 20 28 11 15 1006.7 1006.7 0.0
08/02:00pm 37.4 36.6 17.9 31 12.8 N 19 28 10 15 1006.8 1006.8 0.0
08/01:30pm 36.9 36.3 17.5 32 12.6 N 17 28 9 15 1007.0 1007.0 0.0
08/01:00pm 37.8 36.5 17.2 29 13.4 NNE 20 30 11 16 1007.2 1007.2 0.0
08/12:30pm 36.6 34.9 17.2 31 12.5 NNE 22 33 12 18 1007.5 1007.5 0.0
08/12:00pm 36.5 35.7 17.1 31 12.5 NNE 17 26 9 14 1008.0 1008.0 0.0
08/11:30am 36.0 34.7 16.7 31 12.3 NNE 19 26 10 14 1008.4 1008.4 0.0
08/11:00am 37.0 36.4 17.6 32 12.6 NNE 17 24 9 13 1008.9 1008.9 0.0
08/10:30am 36.2 34.9 16.9 32 12.4 NNE 19 24 10 13 1009.1 1009.1 0.0
08/10:00am 36.3 37.0 17.0 32 12.4 NE 9 20 5 11 1009.2 1009.2 0.0
08/09:30am 36.3 37.7 17.4 32 12.2 WSW 6 11 3 6 1009.4 1009.4 0.0
08/09:00am 34.9 35.8 16.7 34 11.6 NNE 7 15 4 8 1009.5 1009.5 -
08/08:30am 34.4 35.3 16.7 34 11.3 ESE 7 13 4 7 1009.4 1009.4 -
08/08:00am 33.9 35.4 17.6 38 10.5 SSW 6 9 3 5 1009.5 1009.5 -
08/07:30am 32.5 32.6 18.3 43 9.2 SW 15 20 8 11 1009.3 1009.3 -
08/07:00am 30.6 30.8 19.3 51 7.4 SW 17 20 9 11 1009.3 1009.3 -
08/06:30am 30.1 31.3 19.8 54 6.8 SW 13 17 7 9 1009.1 1009.1 -
08/06:00am 29.1 31.5 20.0 58 6.0 WSW 7 11 4 6 1009.1 1009.1 -
08/05:30am 28.5 30.1 20.0 60 5.6 SW 11 11 6 6 1008.8 1008.8 -
08/05:00am 28.4 30.4 19.9 60 5.6 SW 9 13 5 7 1008.4 1008.4 -
08/04:30am 27.6 29.6 19.9 63 5.0 SW 9 11 5 6 1008.2 1008.2 -
08/04:00am 27.7 29.6 19.8 62 5.2 SW 9 11 5 6 1007.7 1007.7 -
08/03:30am 27.6 29.1 19.7 62 5.1 SSW 11 13 6 7 1007.6 1007.6 -
08/03:00am 27.5 29.2 20.1 64 4.8 SSW 11 13 6 7 1007.3 1007.3 0.0
08/02:30am 26.7 28.7 19.1 63 4.9 SSW 7 11 4 6 1007.4 1007.4 -
08/02:00am 27.2 29.3 19.0 61 5.3 SW 6 7 3 4 1007.7 1007.7 -
08/01:30am 28.6 31.1 19.8 59 5.7 WNW 6 7 3 4 1007.8 1007.8 -
08/01:00am 28.9 30.7 20.4 60 5.6 NW 11 13 6 7 1008.2 1008.2 -
08/12:30am 28.5 29.7 20.0 60 5.6 NW 13 15 7 8 1008.7 1008.7 -
08/12:00am 29.4 31.8 20.0 57 6.2 WNW 7 9 4 5 1009.5 1009.5 -
 
Date/Time
WST
Temp
°C
App
Temp
°C
Dew
Point
°C
Rel
Hum
%
Delta-T
°C
Wind Press
QNH
hPa
Press
MSL
hPa
Rain since
9am
mm
Dir  Spd
km/h
Gust
km/h
Spd
kts
Gust
kts
07/11:30pm 29.7 31.7 20.0 56 6.4 SW 9 11 5 6 1009.8 1009.8 -
07/11:00pm 30.1 31.8 20.1 55 6.6 SW 11 15 6 8 1010.2 1010.2 -
07/10:30pm 30.8 31.2 19.8 52 7.2 SW 17 20 9 11 1010.8 1010.8 -
07/10:00pm 31.2 30.9 19.2 48 7.8 SW 19 26 10 14 1011.1 1011.1 -
07/09:30pm 31.3 31.4 19.9 50 7.5 WSW 19 24 10 13 1011.1 1011.1 -
07/09:00pm 31.3 31.8 19.3 49 7.9 W 15 17 8 9 1010.8 1010.8 -
07/08:30pm 31.2 31.6 18.2 46 8.4 W 13 17 7 9 1010.5 1010.5 -
07/08:00pm 30.8 32.4 19.2 50 7.6 W 9 13 5 7 1010.2 1010.2 -
07/07:30pm 30.9 31.8 19.3 50 7.6 NW 13 17 7 9 1009.6 1009.6 -
07/07:00pm 31.2 31.6 18.9 48 8.0 NW 15 19 8 10 1008.9 1008.9 -
07/05:00pm 34.0 32.1 19.3 42 9.7 N 28 33 15 18 1007.4 1007.4 0.0
07/04:30pm 34.5 32.6 18.5 38 10.4 N 26 35 14 19 1007.2 1007.2 0.0
07/04:00pm 35.3 33.3 18.4 37 11.1 N 26 35 14 19 1007.3 1007.3 0.0
07/03:30pm 34.8 33.8 18.0 37 10.9 NNW 20 32 11 17 1007.5 1007.5 0.0
07/03:00pm 35.9 34.4 18.5 36 11.4 N 24 35 13 19 1007.8 1007.8 0.0

Other Formats:

Comma delimited format used in spreadsheet applications
http://www.bom.gov.au/fwo/IDW60801/IDW60801.94308.axf

JavaScript Object Notation format (JSON) in row-major order
http://www.bom.gov.au/fwo/IDW60801/IDW60801.94308.json